KPIR/PIR METAR and TAF weather

Enter ICAO airport designator
Station Type Date Time Source
KPIR METAR 2019/10/15 02:53 UTC NOAA

KPIR 150253Z AUTO 01009KT 10SM CLR 04/02 A2984 RMK AO2 SLP116 60000 T00440022 51024 $


Station Type Date Time Source
KPIR Decoded METAR 2019/10/15 02:53 UTC NOAA

PIERRE REGIONAL AIRPORT, SD, United States (KPIR) 44-23N 100-17W 526M
Oct 14, 2019 - 10:53 PM EDT / 2019.10.15 0253 UTC
Wind: from the N (010 degrees) at 10 MPH (9 KT):0
Visibility: 10 mile(s):0
Sky conditions: clear
Temperature: 39.9 F (4.4 C)
Dew Point: 36.0 F (2.2 C)
Relative Humidity: 85%
Pressure (altimeter): 29.84 in. Hg (1010 hPa)
Pressure tendency: 0.07 inches (2.4 hPa) higher than three hours ago
ob: KPIR 150253Z AUTO 01009KT 10SM CLR 04/02 A2984 RMK AO2 SLP116 60000 T00440022 51024
cycle: 3

Station Type Date Time Source
KPIR TAF 2019/10/14 18:40 UTC NOAA

TAF KPIR 141738Z 1418/1518 13011KT P6SM SKC
FM150400 31010KT P6SM FEW200
FM150600 30017G23KT P6SM FEW250
FM151400 31022G31KT P6SM BKN090
FM151700 32024G31KT P6SM OVC030

Example: see airport list